createdAt,value
2017-11-30T00:00:54.600Z,2.20
2017-11-30T00:03:22.844Z,2.20
2017-11-30T00:05:50.341Z,2.20
2017-11-30T00:08:17.801Z,2.20
2017-11-30T00:10:45.316Z,2.20
2017-11-30T00:13:13.534Z,2.20
2017-11-30T00:15:41.026Z,2.20
2017-11-30T00:18:08.483Z,2.20
2017-11-30T00:20:35.979Z,2.20
2017-11-30T00:25:28.070Z,2.20
2017-11-30T00:27:55.504Z,2.10
2017-11-30T00:30:23.750Z,2.10
2017-11-30T00:32:51.218Z,2.10
2017-11-30T00:35:18.741Z,2.20
2017-11-30T00:37:46.988Z,2.40
2017-11-30T00:40:14.421Z,2.40
2017-11-30T00:42:53.992Z,2.50
2017-11-30T00:45:21.448Z,2.40
2017-11-30T00:47:48.909Z,2.30
2017-11-30T00:50:17.136Z,2.40
2017-11-30T00:52:44.607Z,2.40
2017-11-30T00:55:12.310Z,2.40
2017-11-30T00:57:39.752Z,2.40
2017-11-30T01:00:07.235Z,2.40
2017-11-30T01:02:34.678Z,2.40
2017-11-30T01:05:02.916Z,2.30
2017-11-30T01:07:30.376Z,2.30
2017-11-30T01:09:57.901Z,2.40
2017-11-30T01:12:25.391Z,2.40
2017-11-30T01:14:52.853Z,2.50
2017-11-30T01:17:20.349Z,2.60
2017-11-30T01:19:48.589Z,2.50
2017-11-30T01:22:16.077Z,2.50
2017-11-30T01:24:43.990Z,2.40
2017-11-30T01:27:11.465Z,2.50
2017-11-30T01:29:39.696Z,2.50
2017-11-30T01:32:07.166Z,2.50
2017-11-30T01:34:34.639Z,2.60
2017-11-30T01:37:02.087Z,2.70
2017-11-30T01:39:30.307Z,2.70
2017-11-30T01:41:57.788Z,2.70
2017-11-30T01:44:25.257Z,2.70
2017-11-30T01:46:52.708Z,2.50
2017-11-30T01:49:20.928Z,2.50
2017-11-30T01:51:48.377Z,2.50
2017-11-30T01:54:16.653Z,2.60
2017-11-30T01:56:44.097Z,2.60
2017-11-30T01:59:11.565Z,2.60
2017-11-30T02:01:39.012Z,2.50
2017-11-30T02:04:06.485Z,2.40
2017-11-30T02:06:33.996Z,2.30
2017-11-30T02:09:01.473Z,2.30
2017-11-30T02:11:28.926Z,2.20
2017-11-30T02:13:56.397Z,2.30
2017-11-30T02:16:23.944Z,2.30
2017-11-30T02:18:52.140Z,2.30
2017-11-30T02:21:20.427Z,2.20
2017-11-30T02:23:47.848Z,2.20
2017-11-30T02:26:15.335Z,2.20
2017-11-30T02:28:42.790Z,2.10
2017-11-30T02:31:11.209Z,2.20
2017-11-30T02:33:38.710Z,2.10
2017-11-30T02:36:06.943Z,2.10
2017-11-30T02:38:35.208Z,2.10
2017-11-30T02:41:02.713Z,2.10
2017-11-30T02:43:31.923Z,2.10
2017-11-30T02:46:00.140Z,2.10
2017-11-30T02:48:35.582Z,2.10
2017-11-30T03:14:02.298Z,2.20
2017-11-30T03:45:25.962Z,2.00
2017-11-30T03:47:53.470Z,2.00
2017-11-30T03:50:20.957Z,1.80
2017-11-30T03:55:54.436Z,2.00
2017-11-30T03:58:22.389Z,1.90
2017-11-30T04:00:49.927Z,2.00
2017-11-30T04:23:25.250Z,2.10
2017-11-30T04:25:52.722Z,2.10
2017-11-30T04:28:20.243Z,2.20
2017-11-30T04:30:47.857Z,2.10
2017-11-30T04:33:15.317Z,2.20
2017-11-30T04:35:42.761Z,2.20
2017-11-30T04:38:48.079Z,2.30
2017-11-30T05:16:27.477Z,2.80
2017-11-30T05:18:54.976Z,2.50
2017-11-30T05:47:28.882Z,2.90
2017-11-30T05:49:56.553Z,3.00
2017-11-30T05:52:24.024Z,2.90
2017-11-30T05:54:51.516Z,2.70
2017-11-30T05:57:19.032Z,2.60
2017-11-30T05:59:46.532Z,2.70
2017-11-30T06:02:14.023Z,2.80
2017-11-30T06:04:41.541Z,2.90
2017-11-30T06:07:09.014Z,3.00
2017-11-30T06:09:36.510Z,3.00
2017-11-30T06:12:04.006Z,3.10
2017-11-30T06:14:32.276Z,2.80
2017-11-30T06:17:00.403Z,2.80
2017-11-30T06:19:27.864Z,2.80
2017-11-30T06:21:55.997Z,2.70
2017-11-30T06:24:24.244Z,2.70
2017-11-30T06:26:51.698Z,2.70
2017-11-30T06:29:19.170Z,2.80
2017-11-30T06:31:46.694Z,2.80
2017-11-30T06:34:14.254Z,2.90
2017-11-30T06:36:41.741Z,2.90
2017-11-30T06:39:09.239Z,2.90
2017-11-30T06:41:36.849Z,2.90
2017-11-30T06:44:04.381Z,3.00
2017-11-30T06:46:31.865Z,2.90
2017-11-30T06:48:59.335Z,2.80
2017-11-30T06:51:26.885Z,2.70
2017-11-30T06:53:54.349Z,2.60
2017-11-30T06:56:22.211Z,2.60
2017-11-30T06:58:49.710Z,2.70
2017-11-30T07:01:17.224Z,2.60
2017-11-30T07:03:44.716Z,2.60
2017-11-30T07:06:12.267Z,2.60
2017-11-30T07:08:51.092Z,2.50
2017-11-30T07:11:42.886Z,2.60
2017-11-30T07:14:10.401Z,2.40
2017-11-30T07:16:38.059Z,2.40
2017-11-30T07:19:05.591Z,2.40
2017-11-30T07:39:03.962Z,2.40
2017-11-30T07:44:23.366Z,2.40
2017-11-30T07:46:50.846Z,2.40
2017-11-30T07:49:18.297Z,2.20
2017-11-30T07:51:45.764Z,2.20
2017-11-30T10:40:25.369Z,3.60
2017-11-30T10:42:52.853Z,3.70
2017-11-30T10:45:20.322Z,3.80
2017-11-30T10:47:48.565Z,4.10
2017-11-30T10:50:16.040Z,4.10
2017-11-30T10:52:43.493Z,4.20
2017-11-30T10:55:10.973Z,4.10
2017-11-30T10:57:38.448Z,4.10
2017-11-30T11:00:05.960Z,4.10
2017-11-30T11:02:34.167Z,4.10
2017-11-30T11:05:01.662Z,4.10
2017-11-30T11:07:29.118Z,4.00
2017-11-30T11:09:56.593Z,4.00
2017-11-30T11:12:24.049Z,3.90
2017-11-30T11:14:53.409Z,3.90
2017-11-30T11:17:20.843Z,3.80
2017-11-30T11:19:49.083Z,3.70
2017-11-30T11:23:03.414Z,3.70
2017-11-30T11:25:30.889Z,3.70
2017-11-30T11:27:58.352Z,3.70
2017-11-30T11:31:02.729Z,3.80
2017-11-30T11:33:30.269Z,3.80
2017-11-30T11:35:57.813Z,3.90
2017-11-30T11:38:25.317Z,4.00
2017-11-30T11:52:52.965Z,3.80
2017-11-30T12:13:54.545Z,3.90
2017-11-30T12:16:21.999Z,3.80
2017-11-30T12:18:49.481Z,3.90
2017-11-30T12:21:16.979Z,3.80
2017-11-30T12:23:44.447Z,3.70
2017-11-30T12:26:11.916Z,3.60
2017-11-30T12:28:39.426Z,3.60
2017-11-30T12:31:06.920Z,3.50
2017-11-30T12:33:38.697Z,3.50
2017-11-30T12:36:06.955Z,3.50
2017-11-30T12:38:34.406Z,3.50
2017-11-30T12:41:01.967Z,3.60
2017-11-30T12:43:29.448Z,3.60
2017-11-30T13:03:22.019Z,3.50
2017-11-30T13:05:50.249Z,3.60
2017-11-30T13:08:17.714Z,3.60
2017-11-30T13:10:45.183Z,3.70
2017-11-30T13:13:12.654Z,3.90
2017-11-30T13:15:40.116Z,4.10
2017-11-30T13:18:08.341Z,4.10
2017-11-30T13:20:35.917Z,4.10
2017-11-30T13:23:03.387Z,4.20
2017-11-30T13:25:30.854Z,4.30
2017-11-30T13:27:58.639Z,4.20
2017-11-30T13:30:26.179Z,4.40
2017-11-30T13:32:53.616Z,4.40
2017-11-30T13:35:21.675Z,4.60
2017-11-30T13:37:49.132Z,4.70
2017-11-30T13:40:18.251Z,4.60
2017-11-30T13:42:52.156Z,4.60
2017-11-30T13:45:19.633Z,4.60
2017-11-30T13:47:47.229Z,4.50
2017-11-30T13:59:16.400Z,4.30
2017-11-30T14:01:44.686Z,4.30
2017-11-30T14:04:12.954Z,4.30
2017-11-30T14:06:40.427Z,4.30
2017-11-30T14:09:07.923Z,4.40
2017-11-30T14:11:36.162Z,4.20
2017-11-30T14:17:08.080Z,4.20
2017-11-30T14:19:35.538Z,4.10
2017-11-30T14:22:03.005Z,4.30
2017-11-30T14:24:30.464Z,4.20
2017-11-30T14:26:57.928Z,4.20
2017-11-30T14:29:25.393Z,4.30
2017-11-30T14:31:53.636Z,4.20
2017-11-30T14:34:21.109Z,4.20
2017-11-30T14:36:48.599Z,4.30
2017-11-30T14:39:16.062Z,4.30
2017-11-30T14:41:43.587Z,4.40
2017-11-30T14:44:11.889Z,4.30
2017-11-30T14:46:39.380Z,4.30
2017-11-30T14:49:06.848Z,4.30
2017-11-30T14:51:34.328Z,4.30
2017-11-30T14:54:01.915Z,4.30
2017-11-30T14:56:29.373Z,4.30
2017-11-30T14:58:56.846Z,4.20
2017-11-30T15:01:26.940Z,4.20
2017-11-30T15:03:54.393Z,4.10
2017-11-30T15:06:21.867Z,4.20
2017-11-30T15:08:49.328Z,4.20
2017-11-30T15:11:19.768Z,4.10
2017-11-30T15:13:47.280Z,4.10
2017-11-30T15:16:14.739Z,4.00
2017-11-30T15:18:42.208Z,4.10
2017-11-30T15:21:09.673Z,4.00
2017-11-30T15:23:37.135Z,4.10
2017-11-30T15:26:04.603Z,4.10
2017-11-30T15:28:32.062Z,4.10
2017-11-30T15:31:00.297Z,4.10
2017-11-30T15:33:27.768Z,4.10
2017-11-30T15:35:55.223Z,4.10
2017-11-30T15:38:22.707Z,4.20
2017-11-30T15:40:50.176Z,4.20
2017-11-30T15:43:17.684Z,4.10
2017-11-30T15:45:45.133Z,4.20
2017-11-30T15:48:12.576Z,4.30
2017-11-30T15:50:44.695Z,4.20
2017-11-30T15:53:12.128Z,4.20
2017-11-30T15:55:40.410Z,4.20
2017-11-30T15:58:07.855Z,4.10
2017-11-30T16:00:35.943Z,4.30
2017-11-30T16:03:03.390Z,4.30
2017-11-30T16:05:30.851Z,4.20
2017-11-30T16:07:58.297Z,4.20
2017-11-30T16:10:25.796Z,4.20
2017-11-30T16:12:54.055Z,4.10
2017-11-30T16:15:21.580Z,4.10
2017-11-30T16:17:49.053Z,4.10
2017-11-30T16:20:16.547Z,3.90
2017-11-30T16:22:44.072Z,4.00
2017-11-30T16:25:11.523Z,4.10
2017-11-30T16:27:39.036Z,4.10
2017-11-30T16:30:06.559Z,4.10
2017-11-30T16:35:46.421Z,4.10
2017-11-30T16:38:13.893Z,4.00
2017-11-30T16:40:41.360Z,4.00
2017-11-30T16:43:16.626Z,3.90
2017-11-30T16:45:52.077Z,4.00
2017-11-30T16:48:19.571Z,4.00
2017-11-30T16:51:05.338Z,4.00
2017-11-30T16:53:33.676Z,4.00
2017-11-30T16:56:24.838Z,4.00
2017-11-30T17:01:43.807Z,3.90
2017-11-30T17:04:15.991Z,3.90
2017-11-30T17:06:43.712Z,3.90
2017-11-30T17:09:11.243Z,3.90
2017-11-30T17:11:38.715Z,3.90
2017-11-30T17:14:12.256Z,3.90
2017-11-30T17:16:40.463Z,3.90
2017-11-30T17:19:07.971Z,3.80
2017-11-30T17:21:35.477Z,3.90
2017-11-30T17:24:02.952Z,3.90
2017-11-30T17:26:30.535Z,3.90
2017-11-30T17:28:58.071Z,3.80
2017-11-30T17:31:25.540Z,3.80
2017-11-30T17:33:53.652Z,3.80
2017-11-30T17:36:21.157Z,3.70
2017-11-30T17:42:05.563Z,3.50
2017-11-30T17:44:33.831Z,3.50
2017-11-30T17:47:02.097Z,3.50
2017-11-30T17:49:30.012Z,3.50
2017-11-30T17:51:58.240Z,3.60
2017-11-30T17:54:25.750Z,3.50
2017-11-30T17:56:53.221Z,3.40
2017-11-30T17:59:20.668Z,3.30
2017-11-30T18:01:48.178Z,3.20
2017-11-30T18:04:15.645Z,3.10
2017-11-30T18:06:47.072Z,3.10
2017-11-30T18:09:14.552Z,3.10
2017-11-30T18:11:42.005Z,2.90
2017-11-30T18:14:10.244Z,2.70
2017-11-30T18:16:37.706Z,2.70
2017-11-30T18:19:05.175Z,2.70
2017-11-30T18:21:32.808Z,2.80
2017-11-30T18:27:46.374Z,2.90
2017-11-30T20:11:25.224Z,3.00
2017-11-30T20:13:53.566Z,3.00
2017-11-30T20:16:21.011Z,3.10
2017-11-30T20:18:48.493Z,3.10
2017-11-30T20:21:15.969Z,3.10
2017-11-30T20:23:43.430Z,3.10
2017-11-30T20:26:10.947Z,3.10
2017-11-30T20:28:38.443Z,3.10
2017-11-30T20:31:06.676Z,3.10
2017-11-30T20:33:34.100Z,3.10
2017-11-30T20:48:23.919Z,3.10
2017-11-30T20:50:51.388Z,3.00
2017-11-30T20:53:18.841Z,3.00
2017-11-30T20:55:46.420Z,3.10
2017-11-30T20:58:13.867Z,3.20
2017-11-30T21:00:42.141Z,3.20
2017-11-30T21:03:09.595Z,3.20
2017-11-30T21:05:37.034Z,3.20
2017-11-30T21:08:04.594Z,3.10
2017-11-30T21:10:32.875Z,3.20
2017-11-30T21:13:01.775Z,3.20
2017-11-30T21:15:29.198Z,3.10
2017-11-30T21:17:56.738Z,3.20
2017-11-30T21:20:32.990Z,3.20
2017-11-30T21:23:00.459Z,3.20
2017-11-30T21:25:30.867Z,3.20
2017-11-30T21:27:58.504Z,3.10
2017-11-30T21:30:25.968Z,3.10
2017-11-30T21:32:53.432Z,3.10
2017-11-30T21:35:20.894Z,3.10
2017-11-30T21:40:45.120Z,3.00
2017-11-30T21:43:12.614Z,2.90
2017-11-30T21:45:40.088Z,2.90
2017-11-30T21:48:07.542Z,2.90
2017-11-30T21:50:35.038Z,2.80
2017-11-30T21:53:02.481Z,2.80
2017-11-30T21:55:29.949Z,2.80
2017-11-30T21:57:58.218Z,2.90
2017-11-30T22:00:25.719Z,2.90
2017-11-30T22:02:53.418Z,2.90
2017-11-30T22:05:23.963Z,2.90
2017-11-30T22:07:51.525Z,2.90
2017-11-30T22:13:08.703Z,2.80
2017-11-30T22:15:36.180Z,2.90
2017-11-30T22:18:03.643Z,2.90
2017-11-30T22:23:35.507Z,2.90
2017-11-30T22:26:09.035Z,2.80
2017-11-30T22:28:42.923Z,2.80
2017-11-30T22:31:10.477Z,2.90
2017-11-30T22:33:37.945Z,2.90
2017-11-30T22:36:05.396Z,2.90
2017-11-30T22:39:12.224Z,3.00
2017-11-30T22:45:09.876Z,2.90
2017-11-30T22:47:37.312Z,2.90
2017-11-30T22:50:04.824Z,2.90
2017-11-30T22:52:32.310Z,2.90
2017-11-30T22:54:59.852Z,2.80
2017-11-30T22:57:27.360Z,2.70
2017-11-30T23:02:42.621Z,2.60
2017-11-30T23:05:10.099Z,2.60
2017-11-30T23:07:38.168Z,2.60
2017-11-30T23:10:05.607Z,2.50
2017-11-30T23:33:51.608Z,2.30
2017-11-30T23:36:19.111Z,2.30
2017-11-30T23:38:47.960Z,2.30
2017-11-30T23:41:17.703Z,2.20
2017-11-30T23:43:51.760Z,2.20
2017-11-30T23:46:27.786Z,2.20
2017-11-30T23:51:49.779Z,2.00
2017-11-30T23:54:17.318Z,2.00
2017-11-30T23:56:44.895Z,2.00
